createdAt,value
2022-11-24T00:01:15.847Z,60.82
2022-11-24T00:03:43.454Z,60.69
2022-11-24T00:06:12.442Z,60.96
2022-11-24T00:08:40.399Z,61.00
2022-11-24T00:11:11.540Z,60.91
2022-11-24T00:13:41.260Z,60.92
2022-11-24T00:16:19.272Z,61.17
2022-11-24T00:18:48.066Z,61.02
2022-11-24T00:21:15.860Z,61.00
2022-11-24T00:23:42.566Z,60.94
2022-11-24T00:26:10.768Z,60.84
2022-11-24T00:28:38.031Z,60.91
2022-11-24T00:31:06.267Z,60.70
2022-11-24T00:33:32.886Z,60.81
2022-11-24T00:36:00.324Z,60.63
2022-11-24T00:38:26.895Z,60.72
2022-11-24T00:40:53.534Z,60.79
2022-11-24T00:43:20.320Z,60.68
2022-11-24T00:45:46.963Z,60.68
2022-11-24T00:48:13.549Z,60.77
2022-11-24T00:50:40.091Z,60.84
2022-11-24T00:53:06.635Z,60.70
2022-11-24T00:55:33.138Z,60.93
2022-11-24T00:57:59.615Z,60.96
2022-11-24T01:00:26.543Z,60.97
2022-11-24T01:02:53.250Z,61.14
2022-11-24T01:05:19.879Z,61.12
2022-11-24T01:07:46.331Z,61.20
2022-11-24T01:10:13.005Z,61.25
2022-11-24T01:12:39.549Z,61.28
2022-11-24T01:15:06.611Z,61.16
2022-11-24T01:17:33.160Z,61.25
2022-11-24T01:19:59.682Z,61.11
2022-11-24T01:22:27.488Z,61.34
2022-11-24T01:24:53.978Z,61.47
2022-11-24T01:27:20.451Z,61.53
2022-11-24T01:29:46.912Z,61.33
2022-11-24T01:32:13.398Z,61.33
2022-11-24T01:34:39.867Z,61.19
2022-11-24T01:37:06.313Z,61.36
2022-11-24T01:39:32.807Z,61.26
2022-11-24T01:42:01.896Z,61.50
2022-11-24T01:44:30.743Z,61.43
2022-11-24T01:47:07.525Z,61.53
2022-11-24T01:49:40.045Z,61.50
2022-11-24T01:52:12.800Z,61.37
2022-11-24T01:54:43.973Z,61.63
2022-11-24T01:57:16.611Z,61.48
2022-11-24T01:59:45.109Z,61.55
2022-11-24T02:02:12.045Z,61.27
2022-11-24T02:04:38.993Z,61.28
2022-11-24T02:07:06.588Z,61.31
2022-11-24T02:09:46.901Z,61.39
2022-11-24T02:12:13.531Z,61.39
2022-11-24T02:14:41.059Z,61.39
2022-11-24T02:17:08.575Z,61.39
2022-11-24T02:19:46.333Z,61.51
2022-11-24T02:22:18.917Z,61.41
2022-11-24T02:24:52.673Z,61.55
2022-11-24T02:27:19.977Z,61.60
2022-11-24T02:29:46.672Z,61.62
2022-11-24T02:32:13.450Z,61.59
2022-11-24T02:34:39.986Z,61.83
2022-11-24T02:37:06.453Z,61.65
2022-11-24T02:39:33.272Z,61.80
2022-11-24T02:42:04.952Z,61.70
2022-11-24T02:44:36.518Z,61.77
2022-11-24T02:47:11.359Z,61.83
2022-11-24T02:49:38.728Z,61.90
2022-11-24T02:52:06.040Z,61.98
2022-11-24T02:54:32.924Z,61.94
2022-11-24T02:56:59.747Z,61.88
2022-11-24T02:59:26.235Z,61.97
2022-11-24T03:01:52.987Z,61.97
2022-11-24T03:04:19.586Z,62.02
2022-11-24T03:06:46.168Z,62.22
2022-11-24T03:09:12.698Z,62.31
2022-11-24T03:11:39.307Z,62.15
2022-11-24T03:14:06.737Z,62.36
2022-11-24T03:16:33.515Z,62.17
2022-11-24T03:19:00.477Z,62.25
2022-11-24T03:21:27.144Z,62.13
2022-11-24T03:23:53.989Z,62.18
2022-11-24T03:26:22.028Z,62.26
2022-11-24T03:28:48.555Z,62.16
2022-11-24T03:31:15.549Z,62.42
2022-11-24T03:33:42.078Z,62.28
2022-11-24T03:36:09.194Z,62.60
2022-11-24T03:38:36.091Z,62.43
2022-11-24T03:41:02.661Z,62.71
2022-11-24T03:43:29.202Z,62.70
2022-11-24T03:45:55.738Z,62.64
2022-11-24T03:48:22.306Z,62.41
2022-11-24T03:50:56.095Z,62.60
2022-11-24T03:53:23.570Z,62.55
2022-11-24T03:55:50.080Z,62.48
2022-11-24T03:58:16.587Z,62.40
2022-11-24T04:00:43.144Z,62.41
2022-11-24T04:03:09.685Z,62.30
2022-11-24T04:05:36.675Z,62.29
2022-11-24T04:08:05.364Z,62.33
2022-11-24T04:10:33.387Z,62.33
2022-11-24T04:12:59.887Z,62.26
2022-11-24T04:15:26.517Z,62.25
2022-11-24T04:17:54.990Z,62.34
2022-11-24T04:20:22.462Z,62.48
2022-11-24T04:22:50.880Z,62.30
2022-11-24T04:25:17.573Z,62.45
2022-11-24T04:27:44.392Z,62.45
2022-11-24T04:30:11.781Z,62.62
2022-11-24T04:32:38.219Z,62.63
2022-11-24T04:35:05.007Z,62.71
2022-11-24T04:37:31.515Z,62.63
2022-11-24T04:39:57.986Z,62.66
2022-11-24T04:42:24.532Z,62.69
2022-11-24T04:44:51.019Z,62.73
2022-11-24T04:47:21.605Z,62.65
2022-11-24T04:49:49.132Z,62.53
2022-11-24T04:52:19.781Z,62.63
2022-11-24T04:54:47.078Z,62.64
2022-11-24T04:57:21.266Z,62.62
2022-11-24T04:59:49.180Z,62.52
2022-11-24T05:02:15.920Z,62.69
2022-11-24T05:04:42.589Z,62.50
2022-11-24T05:07:17.981Z,62.59
2022-11-24T05:10:04.367Z,62.50
2022-11-24T05:12:31.400Z,62.64
2022-11-24T05:15:01.491Z,62.56
2022-11-24T05:17:32.686Z,62.82
2022-11-24T05:19:59.198Z,62.56
2022-11-24T05:22:26.945Z,62.63
2022-11-24T05:24:53.431Z,62.75
2022-11-24T05:27:19.955Z,62.62
2022-11-24T05:29:46.412Z,62.67
2022-11-24T05:32:12.951Z,62.61
2022-11-24T05:34:39.571Z,62.62
2022-11-24T05:37:06.784Z,62.54
2022-11-24T05:39:34.082Z,62.60
2022-11-24T05:42:22.433Z,62.68
2022-11-24T05:44:49.188Z,62.74
2022-11-24T05:47:15.704Z,62.66
2022-11-24T05:49:42.375Z,62.66
2022-11-24T05:52:09.290Z,62.73
2022-11-24T05:54:36.062Z,62.75
2022-11-24T05:57:02.856Z,62.72
2022-11-24T05:59:29.391Z,62.86
2022-11-24T06:01:56.047Z,62.92
2022-11-24T06:04:22.687Z,62.78
2022-11-24T06:06:49.243Z,62.87
2022-11-24T06:09:15.768Z,62.83
2022-11-24T06:11:42.287Z,63.06
2022-11-24T06:14:11.585Z,63.19
2022-11-24T06:16:38.438Z,63.14
2022-11-24T06:19:05.163Z,63.21
2022-11-24T06:21:31.928Z,63.42
2022-11-24T06:23:58.875Z,63.41
2022-11-24T06:26:25.481Z,63.49
2022-11-24T06:28:52.037Z,63.42
2022-11-24T06:31:18.860Z,63.45
2022-11-24T06:33:45.434Z,63.36
2022-11-24T06:36:13.451Z,63.24
2022-11-24T06:38:40.148Z,63.35
2022-11-24T06:41:09.594Z,63.32
2022-11-24T06:43:36.575Z,63.39
2022-11-24T06:46:03.363Z,63.70
2022-11-24T06:48:30.488Z,63.59
2022-11-24T06:51:05.898Z,63.44
2022-11-24T06:53:33.642Z,63.44
2022-11-24T06:56:01.084Z,63.32
2022-11-24T06:58:27.813Z,63.45
2022-11-24T07:00:54.745Z,63.42
2022-11-24T07:03:21.662Z,63.53
2022-11-24T07:05:48.247Z,63.31
2022-11-24T07:08:17.955Z,63.30
2022-11-24T07:10:45.458Z,63.28
2022-11-24T07:13:11.932Z,63.24
2022-11-24T07:15:38.500Z,63.27
2022-11-24T07:18:05.118Z,63.08
2022-11-24T07:20:31.809Z,63.11
2022-11-24T07:22:58.907Z,63.21
2022-11-24T07:25:25.878Z,63.01
2022-11-24T07:27:57.004Z,63.11
2022-11-24T07:30:24.153Z,63.16
2022-11-24T07:32:50.655Z,62.98
2022-11-24T07:35:17.824Z,62.98
2022-11-24T07:37:44.636Z,62.80
2022-11-24T07:40:11.687Z,62.70
2022-11-24T07:42:38.156Z,62.65
2022-11-24T07:45:05.052Z,62.53
2022-11-24T07:47:31.551Z,62.64
2022-11-24T07:49:58.092Z,62.72
2022-11-24T07:52:26.791Z,62.38
2022-11-24T07:54:53.408Z,62.56
2022-11-24T07:57:19.937Z,62.39
2022-11-24T07:59:46.426Z,62.52
2022-11-24T08:02:13.361Z,62.42
2022-11-24T08:04:40.060Z,62.31
2022-11-24T08:07:06.608Z,62.27
2022-11-24T08:09:33.215Z,61.91
2022-11-24T08:11:59.887Z,62.11
2022-11-24T08:14:26.419Z,61.90
2022-11-24T08:16:52.994Z,61.70
2022-11-24T08:19:19.717Z,61.82
2022-11-24T08:21:46.439Z,61.71
2022-11-24T08:24:15.302Z,61.67
2022-11-24T08:26:42.192Z,61.66
2022-11-24T08:29:08.736Z,61.53
2022-11-24T08:31:36.155Z,61.43
2022-11-24T08:34:04.092Z,61.36
2022-11-24T08:36:30.790Z,61.54
2022-11-24T08:38:58.846Z,61.44
2022-11-24T08:41:26.301Z,61.35
2022-11-24T08:43:53.622Z,61.34
2022-11-24T08:46:20.609Z,61.20
2022-11-24T08:48:51.951Z,61.09
2022-11-24T08:51:21.699Z,61.07
2022-11-24T08:53:48.218Z,60.86
2022-11-24T08:56:14.880Z,60.86
2022-11-24T08:58:42.018Z,60.70
2022-11-24T09:01:16.470Z,60.44
2022-11-24T09:03:50.028Z,60.36
2022-11-24T09:06:23.480Z,60.17
2022-11-24T09:08:50.210Z,60.20
2022-11-24T09:11:17.351Z,59.99
2022-11-24T09:13:44.374Z,59.96
2022-11-24T09:16:17.516Z,59.87
2022-11-24T09:18:44.688Z,59.75
2022-11-24T09:21:19.497Z,59.73
2022-11-24T09:23:51.115Z,59.72
2022-11-24T09:26:20.226Z,59.72
2022-11-24T09:28:47.218Z,59.56
2022-11-24T09:31:15.395Z,59.63
2022-11-24T09:33:42.464Z,59.61
2022-11-24T09:36:09.561Z,59.22
2022-11-24T09:38:36.383Z,59.25
2022-11-24T09:41:17.730Z,59.12
2022-11-24T09:43:50.186Z,59.22
2022-11-24T09:46:50.194Z,59.14
2022-11-24T09:49:22.549Z,59.21
2022-11-24T09:51:51.629Z,59.29
2022-11-24T09:54:25.349Z,59.05
2022-11-24T09:56:52.624Z,58.90
2022-11-24T09:59:21.696Z,58.69
2022-11-24T10:01:50.179Z,59.05
2022-11-24T10:04:16.747Z,58.92
2022-11-24T10:07:23.299Z,58.96
2022-11-24T10:10:07.870Z,59.00
2022-11-24T10:12:55.802Z,58.90
2022-11-24T10:15:53.129Z,58.73
2022-11-24T10:18:22.390Z,58.54
2022-11-24T10:21:25.000Z,58.49
2022-11-24T10:23:51.503Z,58.58
2022-11-24T10:26:21.680Z,58.49
2022-11-24T10:28:58.191Z,58.43
2022-11-24T10:31:32.507Z,57.99
2022-11-24T10:34:05.844Z,57.87
2022-11-24T10:37:01.687Z,58.01
2022-11-24T10:39:57.120Z,57.60
2022-11-24T10:42:36.979Z,57.33
2022-11-24T10:45:14.022Z,57.24
2022-11-24T10:47:42.740Z,56.91
2022-11-24T10:50:19.386Z,56.96
2022-11-24T10:53:22.655Z,56.97
2022-11-24T10:55:58.035Z,56.50
2022-11-24T10:58:35.845Z,56.66
2022-11-24T11:01:15.905Z,56.67
2022-11-24T11:03:52.500Z,56.68
2022-11-24T11:06:23.297Z,56.54
2022-11-24T11:08:49.839Z,56.36
2022-11-24T11:11:29.920Z,56.67
2022-11-24T11:14:03.510Z,56.38
2022-11-24T11:16:42.350Z,56.48
2022-11-24T11:19:55.461Z,56.51
2022-11-24T11:22:28.676Z,56.61
2022-11-24T11:25:10.473Z,56.30
2022-11-24T11:27:38.008Z,56.61
2022-11-24T11:36:16.069Z,56.84
2022-11-24T11:38:43.316Z,56.72
2022-11-24T11:41:20.003Z,56.83
2022-11-24T11:43:47.957Z,57.10
2022-11-24T11:46:18.423Z,57.08
2022-11-24T11:48:46.902Z,57.31
2022-11-24T11:51:50.048Z,57.23
2022-11-24T11:54:42.341Z,57.13
2022-11-24T11:57:19.151Z,57.28
2022-11-24T11:59:55.287Z,57.20
2022-11-24T12:02:33.264Z,57.43
2022-11-24T12:05:02.199Z,57.15
2022-11-24T12:08:09.194Z,57.56
2022-11-24T12:10:39.302Z,57.43
2022-11-24T12:13:33.659Z,57.19
2022-11-24T12:16:27.674Z,57.08
2022-11-24T12:19:06.335Z,57.24
2022-11-24T12:21:57.918Z,57.13
2022-11-24T12:24:43.585Z,57.19
2022-11-24T12:27:24.691Z,57.03
2022-11-24T12:29:57.802Z,57.02
2022-11-24T12:32:55.108Z,56.74
2022-11-24T12:35:27.998Z,56.61
2022-11-24T12:38:14.562Z,56.56
2022-11-24T12:41:18.007Z,56.50
2022-11-24T12:43:52.404Z,56.19
2022-11-24T12:46:40.426Z,55.97
2022-11-24T12:49:21.472Z,56.06
2022-11-24T12:51:53.785Z,56.37
2022-11-24T12:54:21.794Z,56.00
2022-11-24T12:57:12.859Z,56.44
2022-11-24T12:59:39.280Z,56.49
2022-11-24T13:02:24.773Z,56.55
2022-11-24T13:04:53.870Z,56.63
2022-11-24T13:07:26.095Z,56.77
2022-11-24T13:10:46.455Z,56.77
2022-11-24T13:13:11.838Z,56.62
2022-11-24T13:18:51.919Z,56.43
2022-11-24T13:21:30.391Z,56.40
2022-11-24T13:23:58.219Z,56.38
2022-11-24T13:26:30.872Z,56.34
2022-11-24T13:29:12.933Z,56.52
2022-11-24T13:31:44.688Z,56.37
2022-11-24T13:34:39.292Z,56.54
2022-11-24T13:37:33.791Z,56.56
2022-11-24T13:40:14.341Z,56.32
2022-11-24T13:42:56.260Z,56.61
2022-11-24T13:45:45.275Z,56.51
2022-11-24T13:48:21.660Z,56.74
2022-11-24T13:50:52.191Z,56.94
2022-11-24T13:53:24.815Z,56.88
2022-11-24T13:56:00.352Z,57.05
2022-11-24T13:58:31.270Z,56.71
2022-11-24T14:01:22.147Z,57.00
2022-11-24T14:04:35.513Z,56.86
2022-11-24T14:07:09.530Z,56.88
2022-11-24T14:09:44.948Z,56.79
2022-11-24T14:12:21.333Z,56.32
2022-11-24T14:14:49.891Z,56.41
2022-11-24T14:17:20.834Z,56.41
2022-11-24T14:19:49.362Z,56.43
2022-11-24T14:22:21.773Z,56.10
2022-11-24T14:24:57.100Z,56.37
2022-11-24T14:27:31.998Z,56.09
2022-11-24T14:30:05.856Z,56.11
2022-11-24T14:32:32.407Z,56.14
2022-11-24T14:34:59.065Z,56.49
2022-11-24T14:37:25.784Z,56.42
2022-11-24T14:39:52.488Z,56.08
2022-11-24T14:42:24.438Z,56.03
2022-11-24T14:44:56.425Z,56.47
2022-11-24T14:47:32.422Z,56.52
2022-11-24T14:50:12.481Z,56.43
2022-11-24T14:52:53.326Z,56.78
2022-11-24T14:55:28.161Z,56.66
2022-11-24T14:57:54.905Z,56.89
2022-11-24T15:00:24.277Z,56.58
2022-11-24T15:03:16.168Z,56.49
2022-11-24T15:06:00.505Z,56.49
2022-11-24T15:08:42.413Z,56.74
2022-11-24T15:11:08.958Z,56.30
2022-11-24T15:13:38.267Z,56.34
2022-11-24T15:16:07.384Z,56.60
2022-11-24T15:18:45.268Z,56.59
2022-11-24T15:21:17.459Z,56.60
2022-11-24T15:24:04.855Z,56.86
2022-11-24T15:26:36.729Z,57.11
2022-11-24T15:29:06.946Z,56.86
2022-11-24T15:31:33.500Z,56.77
2022-11-24T15:34:00.118Z,56.84
2022-11-24T15:36:26.703Z,57.04
2022-11-24T15:38:53.245Z,57.10
2022-11-24T15:41:21.425Z,57.46
2022-11-24T15:43:47.979Z,57.39
2022-11-24T15:46:14.603Z,57.63
2022-11-24T15:48:41.506Z,57.34
2022-11-24T15:51:13.308Z,57.38
2022-11-24T15:53:43.355Z,57.46
2022-11-24T15:56:16.237Z,57.48
2022-11-24T15:58:42.771Z,57.41
2022-11-24T16:01:09.339Z,57.35
2022-11-24T16:03:46.892Z,57.33
2022-11-24T16:06:24.127Z,57.79
2022-11-24T16:08:52.804Z,57.85
2022-11-24T16:11:19.401Z,58.00
2022-11-24T16:13:51.999Z,58.18
2022-11-24T16:16:20.009Z,58.09
2022-11-24T16:18:46.663Z,57.96
2022-11-24T16:21:13.268Z,58.25
2022-11-24T16:23:40.628Z,57.90
2022-11-24T16:26:07.499Z,57.88
2022-11-24T16:28:34.016Z,58.08
2022-11-24T16:31:00.599Z,58.03
2022-11-24T16:33:29.178Z,58.21
2022-11-24T16:35:55.651Z,58.34
2022-11-24T16:38:22.298Z,58.67
2022-11-24T16:40:53.013Z,58.30
2022-11-24T16:43:19.813Z,58.59
2022-11-24T16:45:46.590Z,58.55
2022-11-24T16:48:13.186Z,58.50
2022-11-24T16:50:39.761Z,58.77
2022-11-24T16:53:06.268Z,58.88
2022-11-24T16:55:32.810Z,58.75
2022-11-24T16:57:59.327Z,58.75
2022-11-24T17:00:25.822Z,58.81
2022-11-24T17:02:52.577Z,58.64
2022-11-24T17:05:19.109Z,58.73
2022-11-24T17:07:45.639Z,58.66
2022-11-24T17:10:12.153Z,58.80
2022-11-24T17:12:38.748Z,58.76
2022-11-24T17:18:22.434Z,58.77
2022-11-24T17:20:38.729Z,58.69
2022-11-24T17:23:05.290Z,58.76
2022-11-24T17:25:32.667Z,58.89
2022-11-24T17:27:59.337Z,58.91
2022-11-24T17:30:25.882Z,58.66
2022-11-24T17:32:56.631Z,58.93
2022-11-24T17:35:23.670Z,58.93
2022-11-24T17:37:50.288Z,58.88
2022-11-24T17:40:34.315Z,58.91
2022-11-24T17:43:01.355Z,58.97
2022-11-24T17:45:28.906Z,58.96
2022-11-24T17:47:56.226Z,58.98
2022-11-24T17:50:26.093Z,59.03
2022-11-24T17:52:53.580Z,59.06
2022-11-24T17:55:20.127Z,59.02
2022-11-24T17:57:46.771Z,59.36
2022-11-24T18:00:13.974Z,59.36
2022-11-24T18:02:40.472Z,59.41
2022-11-24T18:05:07.487Z,59.53
2022-11-24T18:07:36.596Z,59.59
2022-11-24T18:10:04.254Z,59.75
2022-11-24T18:12:31.042Z,59.47
2022-11-24T18:14:57.485Z,59.47
2022-11-24T18:17:24.078Z,59.54
2022-11-24T18:19:50.656Z,59.58
2022-11-24T18:22:17.602Z,59.77
2022-11-24T18:24:47.302Z,59.62
2022-11-24T18:27:13.823Z,59.78
2022-11-24T18:29:40.291Z,59.89
2022-11-24T18:32:06.962Z,59.90
2022-11-24T18:34:34.000Z,59.78
2022-11-24T18:37:00.810Z,59.82
2022-11-24T18:39:28.443Z,59.92
2022-11-24T18:41:54.991Z,59.88
2022-11-24T18:44:21.480Z,59.99
2022-11-24T18:46:49.385Z,60.05
2022-11-24T18:49:15.909Z,60.15
2022-11-24T18:51:42.357Z,60.25
2022-11-24T18:54:08.938Z,60.45
2022-11-24T18:56:35.483Z,60.42
2022-11-24T18:59:02.325Z,60.54
2022-11-24T19:01:29.419Z,60.48
2022-11-24T19:03:57.976Z,60.57
2022-11-24T19:06:32.329Z,60.72
2022-11-24T19:09:20.453Z,60.64
2022-11-24T19:11:47.367Z,60.61
2022-11-24T19:14:15.963Z,60.72
2022-11-24T19:16:43.240Z,60.85
2022-11-24T19:19:12.340Z,60.85
2022-11-24T19:21:39.934Z,60.89
2022-11-24T19:24:07.861Z,60.94
2022-11-24T19:26:37.440Z,60.76
2022-11-24T19:29:04.710Z,60.72
2022-11-24T19:31:31.539Z,60.64
2022-11-24T19:34:00.660Z,60.63
2022-11-24T19:36:29.896Z,60.70
2022-11-24T19:38:57.584Z,60.70
2022-11-24T19:41:29.904Z,60.51
2022-11-24T19:43:57.936Z,60.76
2022-11-24T19:46:27.124Z,60.74
2022-11-24T19:48:56.146Z,60.70
2022-11-24T19:51:26.487Z,60.69
2022-11-24T19:53:56.342Z,60.60
2022-11-24T19:56:24.866Z,60.79
2022-11-24T19:58:52.094Z,60.65
2022-11-24T20:01:22.830Z,60.53
2022-11-24T20:03:59.002Z,60.77
2022-11-24T20:06:30.617Z,60.79
2022-11-24T20:08:58.694Z,60.68
2022-11-24T20:11:25.222Z,60.64
2022-11-24T20:13:51.899Z,60.72
2022-11-24T20:16:28.318Z,60.78
2022-11-24T20:18:56.759Z,60.65
2022-11-24T20:21:33.902Z,60.65
2022-11-24T20:24:10.254Z,60.62
2022-11-24T20:26:39.736Z,60.64
2022-11-24T20:29:06.650Z,60.71
2022-11-24T20:31:35.968Z,60.67
2022-11-24T20:34:03.942Z,60.62
2022-11-24T20:36:32.013Z,60.70
2022-11-24T20:39:00.381Z,60.65
2022-11-24T20:41:29.186Z,60.70
2022-11-24T20:43:57.994Z,60.66
2022-11-24T20:46:27.170Z,60.83
2022-11-24T20:48:54.537Z,60.87
2022-11-24T20:51:28.933Z,61.09
2022-11-24T20:53:58.992Z,61.07
2022-11-24T20:56:28.095Z,61.17
2022-11-24T20:58:55.375Z,61.35
2022-11-24T21:01:29.368Z,61.42
2022-11-24T21:03:57.950Z,61.68
2022-11-24T21:06:25.071Z,61.36
2022-11-24T21:08:52.077Z,61.46
2022-11-24T21:11:19.216Z,61.59
2022-11-24T21:13:46.061Z,61.69
2022-11-24T21:16:22.140Z,61.75
2022-11-24T21:18:51.072Z,61.79
2022-11-24T21:21:19.152Z,61.59
2022-11-24T21:23:46.163Z,61.72
2022-11-24T21:26:16.619Z,61.59
2022-11-24T21:28:45.897Z,61.70
2022-11-24T21:31:14.938Z,61.59
2022-11-24T21:33:43.268Z,61.77
2022-11-24T21:36:09.894Z,61.69
2022-11-24T21:38:36.684Z,61.66
2022-11-24T21:41:05.755Z,61.59
2022-11-24T21:43:33.039Z,61.63
2022-11-24T21:46:03.876Z,61.50
2022-11-24T21:48:31.273Z,61.40
2022-11-24T21:50:59.119Z,61.65
2022-11-24T21:53:26.535Z,61.63
2022-11-24T21:55:57.376Z,61.67
2022-11-24T21:58:24.719Z,61.52
2022-11-24T22:00:51.624Z,61.55
2022-11-24T22:03:19.059Z,61.66
2022-11-24T22:05:56.123Z,61.68
2022-11-24T22:08:23.685Z,61.62
2022-11-24T22:10:50.453Z,61.67
2022-11-24T22:13:17.043Z,61.74
2022-11-24T22:15:43.794Z,61.74
2022-11-24T22:18:10.609Z,61.72
2022-11-24T22:20:37.118Z,61.80
2022-11-24T22:23:04.161Z,61.79
2022-11-24T22:25:30.751Z,62.01
2022-11-24T22:27:58.286Z,61.93
2022-11-24T22:30:24.823Z,61.85
2022-11-24T22:32:51.574Z,61.74
2022-11-24T22:35:18.058Z,61.66
2022-11-24T22:37:44.553Z,61.48
2022-11-24T22:40:11.310Z,61.48
2022-11-24T22:42:37.760Z,61.55
2022-11-24T22:45:04.687Z,61.47
2022-11-24T22:47:31.197Z,61.40
2022-11-24T22:49:57.658Z,61.40
2022-11-24T22:52:24.211Z,61.28
2022-11-24T22:54:50.867Z,61.43
2022-11-24T22:57:17.344Z,61.24
2022-11-24T22:59:43.878Z,61.26
2022-11-24T23:02:10.630Z,61.24
2022-11-24T23:04:37.448Z,61.22
2022-11-24T23:07:04.158Z,61.21
2022-11-24T23:09:30.693Z,61.11
2022-11-24T23:11:57.191Z,61.23
2022-11-24T23:14:23.715Z,61.20
2022-11-24T23:16:50.277Z,61.15
2022-11-24T23:19:16.804Z,61.22
2022-11-24T23:21:43.200Z,61.24
2022-11-24T23:24:10.588Z,61.24
2022-11-24T23:26:39.363Z,61.25
2022-11-24T23:29:06.320Z,61.29
2022-11-24T23:31:33.007Z,61.34
2022-11-24T23:34:01.521Z,61.27
2022-11-24T23:36:28.689Z,61.32
2022-11-24T23:38:55.227Z,61.39
2022-11-24T23:41:24.297Z,61.46
2022-11-24T23:43:52.329Z,61.24
2022-11-24T23:46:21.485Z,61.51
2022-11-24T23:48:48.971Z,61.48
2022-11-24T23:51:17.060Z,61.55
2022-11-24T23:53:43.967Z,61.59
2022-11-24T23:56:15.082Z,61.60
2022-11-24T23:58:41.865Z,61.58
